createdAt,value
2019-03-24T00:01:28.546Z,62.70
2019-03-24T00:04:05.821Z,70.10
2019-03-24T00:06:36.522Z,65.93
2019-03-24T00:09:09.099Z,62.27
2019-03-24T00:11:40.280Z,62.63
2019-03-24T00:14:10.996Z,57.27
2019-03-24T00:16:42.080Z,57.40
2019-03-24T00:19:13.454Z,57.77
2019-03-24T00:21:44.143Z,56.30
2019-03-24T00:24:14.966Z,59.33
2019-03-24T00:26:46.783Z,54.83
2019-03-24T00:29:17.788Z,55.23
2019-03-24T00:31:48.801Z,46.03
2019-03-24T00:34:19.550Z,50.77
2019-03-24T00:36:50.889Z,53.97
2019-03-24T00:39:21.825Z,47.63
2019-03-24T00:41:52.637Z,49.93
2019-03-24T00:44:27.755Z,49.43
2019-03-24T00:46:58.925Z,44.67
2019-03-24T00:49:29.719Z,38.17
2019-03-24T00:52:01.101Z,43.53
2019-03-24T00:54:31.953Z,42.60
2019-03-24T00:57:02.962Z,41.33
2019-03-24T00:59:33.827Z,40.47
2019-03-24T01:02:04.695Z,41.90
2019-03-24T01:04:35.544Z,42.07
2019-03-24T01:07:06.542Z,39.10
2019-03-24T01:09:37.659Z,37.63
2019-03-24T01:12:11.440Z,39.83
2019-03-24T01:14:42.149Z,37.63
2019-03-24T01:17:12.964Z,35.27
2019-03-24T01:19:43.731Z,35.67
2019-03-24T01:22:14.662Z,30.77
2019-03-24T01:24:45.707Z,36.00
2019-03-24T01:27:16.380Z,32.93
2019-03-24T01:29:47.141Z,32.97
2019-03-24T01:32:18.123Z,29.97
2019-03-24T01:34:48.830Z,37.20
2019-03-24T01:37:19.520Z,37.30
2019-03-24T01:39:50.585Z,30.90
2019-03-24T01:42:21.723Z,33.73
2019-03-24T01:44:52.742Z,39.33
2019-03-24T01:47:23.438Z,42.17
2019-03-24T01:49:54.710Z,37.97
2019-03-24T01:52:25.540Z,36.20
2019-03-24T01:54:56.258Z,33.93
2019-03-24T01:57:26.951Z,35.57
2019-03-24T01:59:57.707Z,37.07
2019-03-24T02:02:28.508Z,42.20
2019-03-24T02:04:59.450Z,40.30
2019-03-24T02:07:30.183Z,44.97
2019-03-24T02:10:01.193Z,42.30
2019-03-24T02:12:32.077Z,42.00
2019-03-24T02:15:02.882Z,43.60
2019-03-24T02:17:33.573Z,39.80
2019-03-24T02:20:04.985Z,39.43
2019-03-24T02:22:36.456Z,39.03
2019-03-24T02:25:07.676Z,43.60
2019-03-24T02:27:38.423Z,42.10
2019-03-24T02:30:10.442Z,39.00
2019-03-24T02:32:41.392Z,36.53
2019-03-24T02:35:12.369Z,36.87
2019-03-24T02:37:43.102Z,37.90
2019-03-24T02:40:13.981Z,32.33
2019-03-24T02:42:45.153Z,34.97
2019-03-24T02:45:16.508Z,34.87
2019-03-24T02:47:47.311Z,29.47
2019-03-24T02:50:18.416Z,37.83
2019-03-24T02:52:49.540Z,33.63
2019-03-24T02:55:20.350Z,29.03
2019-03-24T02:57:51.188Z,28.10
2019-03-24T03:00:22.059Z,29.57
2019-03-24T03:02:52.955Z,29.67
2019-03-24T03:05:23.682Z,29.37
2019-03-24T03:07:54.351Z,23.37
2019-03-24T03:10:25.139Z,29.00
2019-03-24T03:12:55.849Z,29.17
2019-03-24T03:15:26.783Z,26.70
2019-03-24T03:17:57.531Z,26.33
2019-03-24T03:20:28.203Z,35.47
2019-03-24T03:22:58.851Z,28.67
2019-03-24T03:25:29.584Z,32.87
2019-03-24T03:28:00.295Z,30.30
2019-03-24T03:30:30.983Z,28.30
2019-03-24T03:33:01.703Z,30.63
2019-03-24T03:35:32.399Z,33.37
2019-03-24T03:38:03.127Z,28.53
2019-03-24T03:40:33.780Z,31.73
2019-03-24T03:43:04.818Z,29.27
2019-03-24T03:45:39.038Z,28.83
2019-03-24T03:48:08.209Z,35.90
2019-03-24T03:50:38.980Z,30.90
2019-03-24T03:53:10.134Z,30.50
2019-03-24T03:55:40.793Z,29.93
2019-03-24T03:58:11.743Z,31.47
2019-03-24T04:00:43.210Z,30.13
2019-03-24T04:03:14.082Z,30.50
2019-03-24T04:05:44.884Z,28.33
2019-03-24T04:08:15.846Z,30.23
2019-03-24T04:10:46.658Z,28.80
2019-03-24T04:13:17.589Z,32.67
2019-03-24T04:15:48.585Z,31.43
2019-03-24T04:18:19.402Z,32.57
2019-03-24T04:20:50.507Z,30.20
2019-03-24T04:23:21.197Z,31.47
2019-03-24T04:25:51.867Z,28.60
2019-03-24T04:28:22.552Z,31.73
2019-03-24T04:30:53.252Z,34.17
2019-03-24T04:33:24.679Z,26.43
2019-03-24T04:35:55.333Z,31.90
2019-03-24T04:38:26.013Z,31.60
2019-03-24T04:40:56.698Z,33.10
2019-03-24T04:43:28.059Z,34.13
2019-03-24T04:45:58.738Z,30.17
2019-03-24T04:48:29.856Z,32.20
2019-03-24T04:51:00.588Z,26.97
2019-03-24T04:53:31.288Z,35.03
2019-03-24T04:56:02.040Z,30.53
2019-03-24T04:58:33.146Z,33.50
2019-03-24T05:01:03.902Z,32.50
2019-03-24T05:03:35.391Z,27.07
2019-03-24T05:06:06.248Z,32.07
2019-03-24T05:08:38.063Z,27.90
2019-03-24T05:11:09.001Z,34.03
2019-03-24T05:13:40.019Z,27.60
2019-03-24T05:16:10.681Z,36.93
2019-03-24T05:18:41.572Z,30.50
2019-03-24T05:21:12.255Z,31.20
2019-03-24T05:23:43.174Z,30.13
2019-03-24T05:26:13.860Z,32.37
2019-03-24T05:28:44.800Z,38.90
2019-03-24T05:31:15.470Z,29.43
2019-03-24T05:33:46.455Z,32.23
2019-03-24T05:36:17.127Z,34.47
2019-03-24T05:38:47.836Z,28.17
2019-03-24T05:41:18.515Z,26.77
2019-03-24T05:43:49.307Z,32.07
2019-03-24T05:46:20.009Z,29.40
2019-03-24T05:48:51.858Z,24.30
2019-03-24T05:51:23.171Z,21.90
2019-03-24T05:53:54.109Z,25.33
2019-03-24T05:56:24.794Z,23.10
2019-03-24T05:58:55.499Z,29.43
2019-03-24T06:01:26.201Z,26.50
2019-03-24T06:03:57.118Z,26.47
2019-03-24T06:06:27.784Z,25.17
2019-03-24T06:08:58.448Z,27.67
2019-03-24T06:11:29.355Z,27.60
2019-03-24T06:14:00.029Z,30.30
2019-03-24T06:16:30.941Z,24.50
2019-03-24T06:19:01.752Z,26.97
2019-03-24T06:21:33.109Z,25.07
2019-03-24T06:24:03.813Z,26.23
2019-03-24T06:26:34.722Z,20.27
2019-03-24T06:29:05.476Z,19.87
2019-03-24T06:31:36.564Z,27.17
2019-03-24T06:34:07.280Z,21.73
2019-03-24T06:36:37.967Z,19.37
2019-03-24T06:39:09.497Z,26.83
2019-03-24T06:41:40.175Z,25.20
2019-03-24T06:44:11.295Z,22.57
2019-03-24T06:46:42.002Z,19.00
2019-03-24T06:49:12.719Z,21.43
2019-03-24T06:51:43.807Z,25.23
2019-03-24T06:54:14.509Z,24.90
2019-03-24T06:56:45.171Z,17.43
2019-03-24T06:59:15.943Z,21.93
2019-03-24T07:01:46.704Z,26.43
2019-03-24T07:04:17.381Z,23.97
2019-03-24T07:06:48.328Z,19.47
2019-03-24T07:09:19.013Z,22.07
2019-03-24T07:11:50.061Z,21.17
2019-03-24T07:14:20.942Z,20.13
2019-03-24T07:16:51.667Z,16.70
2019-03-24T07:19:22.362Z,16.77
2019-03-24T07:21:53.023Z,17.57
2019-03-24T07:24:23.858Z,20.43
2019-03-24T07:26:54.762Z,19.47
2019-03-24T07:29:25.552Z,21.63
2019-03-24T07:31:56.247Z,15.30
2019-03-24T07:34:27.029Z,15.63
2019-03-24T07:36:57.721Z,18.70
2019-03-24T07:39:28.407Z,16.33
2019-03-24T07:41:59.097Z,17.83
2019-03-24T07:44:29.784Z,16.97
2019-03-24T07:47:00.700Z,19.17
2019-03-24T07:49:31.389Z,17.23
2019-03-24T07:52:02.064Z,17.87
2019-03-24T07:54:32.757Z,15.63
2019-03-24T07:57:03.597Z,18.80
2019-03-24T07:59:34.370Z,22.50
2019-03-24T08:02:05.255Z,18.07
2019-03-24T08:04:35.952Z,18.90
2019-03-24T08:07:06.639Z,14.30
2019-03-24T08:09:37.404Z,17.13
2019-03-24T08:12:08.163Z,18.37
2019-03-24T08:14:39.397Z,17.40
2019-03-24T08:17:10.575Z,16.40
2019-03-24T08:19:41.295Z,18.07
2019-03-24T08:22:11.983Z,13.83
2019-03-24T08:24:42.894Z,14.37
2019-03-24T08:27:13.565Z,15.50
2019-03-24T08:29:44.287Z,15.53
2019-03-24T08:32:14.941Z,17.90
2019-03-24T08:34:48.351Z,15.40
2019-03-24T08:37:18.469Z,19.67
2019-03-24T08:39:49.183Z,16.97
2019-03-24T08:42:19.849Z,19.83
2019-03-24T08:44:50.832Z,17.30
2019-03-24T08:47:21.661Z,19.90
2019-03-24T08:49:52.330Z,16.97
2019-03-24T08:52:23.423Z,21.30
2019-03-24T08:54:54.072Z,25.23
2019-03-24T08:57:24.826Z,19.33
2019-03-24T08:59:55.578Z,20.77
2019-03-24T09:02:26.276Z,19.50
2019-03-24T09:04:57.045Z,14.30
2019-03-24T09:07:27.741Z,19.50
2019-03-24T09:10:01.164Z,16.63
2019-03-24T09:12:31.928Z,13.40
2019-03-24T09:15:02.606Z,13.70
2019-03-24T09:17:33.649Z,15.83
2019-03-24T09:20:05.322Z,19.13
2019-03-24T09:22:36.025Z,16.17
2019-03-24T09:25:07.980Z,16.83
2019-03-24T09:27:38.943Z,19.93
2019-03-24T09:30:34.601Z,16.93
2019-03-24T09:33:05.483Z,17.83
2019-03-24T09:35:36.280Z,20.10
2019-03-24T09:38:07.502Z,19.50
2019-03-24T09:40:38.373Z,18.37
2019-03-24T09:43:12.213Z,18.30
2019-03-24T09:45:42.951Z,18.47
2019-03-24T09:48:13.720Z,19.67
2019-03-24T09:50:44.515Z,15.67
2019-03-24T09:53:15.192Z,18.27
2019-03-24T09:55:46.202Z,15.93
2019-03-24T09:58:16.949Z,15.40
2019-03-24T10:00:47.693Z,16.47
2019-03-24T10:03:18.410Z,13.67
2019-03-24T10:05:49.095Z,15.90
2019-03-24T10:08:19.890Z,16.37
2019-03-24T10:10:50.827Z,10.63
2019-03-24T10:13:21.663Z,15.63
2019-03-24T10:15:52.426Z,10.17
2019-03-24T10:18:23.311Z,12.67
2019-03-24T10:20:53.991Z,14.73
2019-03-24T10:23:24.679Z,15.37
2019-03-24T10:25:55.865Z,12.97
2019-03-24T10:28:26.580Z,13.57
2019-03-24T10:30:57.410Z,11.70
2019-03-24T10:33:28.154Z,13.53
2019-03-24T10:35:58.885Z,10.70
2019-03-24T10:38:29.595Z,11.17
2019-03-24T10:41:00.283Z,10.90
2019-03-24T10:43:31.596Z,15.37
2019-03-24T10:46:02.458Z,11.93
2019-03-24T10:48:34.053Z,9.47
2019-03-24T10:51:05.261Z,9.83
2019-03-24T10:53:36.164Z,14.07
2019-03-24T10:56:07.576Z,10.57
2019-03-24T10:58:38.534Z,9.43
2019-03-24T11:01:09.488Z,7.87
2019-03-24T11:03:42.107Z,8.50
2019-03-24T11:06:12.978Z,12.53
2019-03-24T11:08:44.098Z,11.83
2019-03-24T11:11:14.946Z,12.57
2019-03-24T11:13:46.314Z,12.50
2019-03-24T11:16:17.606Z,8.90
2019-03-24T11:18:48.492Z,10.93
2019-03-24T11:21:24.072Z,7.43
2019-03-24T11:23:54.954Z,7.80
2019-03-24T11:26:25.734Z,8.13
2019-03-24T11:28:56.513Z,8.40
2019-03-24T11:31:27.445Z,11.73
2019-03-24T11:33:58.357Z,10.73
2019-03-24T11:36:29.527Z,8.97
2019-03-24T11:39:00.839Z,8.83
2019-03-24T11:41:31.887Z,6.33
2019-03-24T11:44:02.783Z,9.43
2019-03-24T11:46:33.590Z,6.27
2019-03-24T11:49:04.385Z,9.93
2019-03-24T11:51:35.541Z,9.57
2019-03-24T11:54:06.219Z,7.73
2019-03-24T11:56:37.470Z,9.40
2019-03-24T11:59:08.363Z,9.13
2019-03-24T12:01:39.649Z,8.70
2019-03-24T12:04:10.603Z,9.37
2019-03-24T12:06:41.313Z,7.73
2019-03-24T12:09:12.175Z,10.37
2019-03-24T12:11:43.188Z,8.33
2019-03-24T12:14:14.533Z,9.93
2019-03-24T12:16:45.463Z,8.57
2019-03-24T12:19:16.252Z,8.07
2019-03-24T12:21:47.016Z,5.93
2019-03-24T12:24:17.777Z,8.63
2019-03-24T12:26:48.739Z,9.13
2019-03-24T12:29:19.502Z,10.97
2019-03-24T12:31:50.305Z,9.83
2019-03-24T12:34:21.151Z,9.80
2019-03-24T12:36:51.909Z,10.40
2019-03-24T12:39:22.821Z,7.77
2019-03-24T12:41:53.498Z,8.40
2019-03-24T12:44:24.530Z,12.67
2019-03-24T12:46:55.314Z,10.67
2019-03-24T12:49:25.992Z,9.47
2019-03-24T12:51:56.787Z,9.47
2019-03-24T12:54:27.518Z,8.43
2019-03-24T12:56:58.303Z,5.90
2019-03-24T12:59:29.012Z,9.43
2019-03-24T13:01:59.704Z,12.83
2019-03-24T13:04:31.398Z,7.77
2019-03-24T13:07:02.655Z,7.63
2019-03-24T13:09:33.755Z,7.80
2019-03-24T13:12:05.028Z,6.90
2019-03-24T13:14:36.000Z,11.43
2019-03-24T13:17:07.139Z,9.43
2019-03-24T13:19:38.333Z,7.83
2019-03-24T13:22:09.303Z,10.53
2019-03-24T13:24:40.739Z,10.27
2019-03-24T13:27:11.451Z,8.77
2019-03-24T13:29:42.230Z,7.10
2019-03-24T13:32:12.909Z,7.53
2019-03-24T13:34:43.688Z,8.57
2019-03-24T13:37:14.669Z,8.20
2019-03-24T13:39:45.369Z,6.17
2019-03-24T13:42:16.181Z,7.27
2019-03-24T13:44:47.101Z,10.10
2019-03-24T13:47:17.994Z,10.87
2019-03-24T13:49:48.932Z,9.47
2019-03-24T13:52:20.293Z,8.30
2019-03-24T13:54:52.114Z,7.93
2019-03-24T13:57:23.443Z,7.93
2019-03-24T13:59:54.308Z,8.20
2019-03-24T14:02:26.197Z,7.93
2019-03-24T14:04:57.437Z,10.70
2019-03-24T14:07:28.170Z,11.00
2019-03-24T14:09:59.043Z,9.70
2019-03-24T14:12:29.840Z,8.27
2019-03-24T14:15:00.598Z,12.20
2019-03-24T14:17:32.115Z,8.10
2019-03-24T14:20:02.950Z,12.80
2019-03-24T14:22:34.505Z,8.57
2019-03-24T14:25:05.760Z,10.40
2019-03-24T14:27:36.759Z,6.53
2019-03-24T14:30:08.911Z,6.97
2019-03-24T14:32:39.718Z,12.47
2019-03-24T14:35:11.123Z,13.07
2019-03-24T14:37:42.643Z,10.23
2019-03-24T14:40:17.280Z,9.23
2019-03-24T14:42:48.138Z,10.33
2019-03-24T14:45:19.568Z,9.87
2019-03-24T14:47:50.528Z,11.93
2019-03-24T14:50:22.061Z,8.53
2019-03-24T14:52:53.045Z,14.93
2019-03-24T14:55:23.920Z,10.67
2019-03-24T14:57:55.076Z,8.07
2019-03-24T15:00:37.261Z,8.67
2019-03-24T15:03:11.294Z,10.90
2019-03-24T15:05:42.566Z,9.83
2019-03-24T15:08:14.101Z,9.87
2019-03-24T15:10:52.466Z,12.17
2019-03-24T15:13:23.662Z,9.97
2019-03-24T15:15:54.461Z,8.97
2019-03-24T15:18:36.508Z,6.50
2019-03-24T15:21:11.510Z,9.70
2019-03-24T15:23:42.742Z,9.17
2019-03-24T15:26:13.969Z,7.17
2019-03-24T15:28:46.147Z,10.63
2019-03-24T15:31:16.995Z,10.83
2019-03-24T15:33:48.059Z,12.23
2019-03-24T15:36:19.010Z,8.23
2019-03-24T15:38:50.165Z,9.43
2019-03-24T15:41:21.136Z,9.87
2019-03-24T15:43:52.610Z,11.87
2019-03-24T15:46:26.647Z,8.33
2019-03-24T15:48:57.694Z,6.90
2019-03-24T15:51:28.512Z,11.50
2019-03-24T15:53:59.645Z,11.07
2019-03-24T15:56:30.357Z,8.90
2019-03-24T15:59:01.854Z,10.67
2019-03-24T16:01:32.714Z,9.27
2019-03-24T16:04:03.932Z,9.00
2019-03-24T16:06:35.904Z,8.37
2019-03-24T16:09:09.027Z,13.07
2019-03-24T16:11:40.508Z,9.00
2019-03-24T16:14:18.280Z,11.20
2019-03-24T16:16:49.250Z,9.73
2019-03-24T16:19:20.077Z,12.87
2019-03-24T16:21:50.890Z,10.03
2019-03-24T16:24:24.897Z,8.43
2019-03-24T16:26:55.587Z,11.20
2019-03-24T16:29:26.557Z,10.70
2019-03-24T16:31:57.483Z,10.87
2019-03-24T16:34:28.657Z,7.37
2019-03-24T16:36:59.507Z,12.77
2019-03-24T16:39:30.487Z,10.20
2019-03-24T16:42:02.286Z,12.53
2019-03-24T16:44:33.787Z,13.47
2019-03-24T16:47:04.591Z,9.50
2019-03-24T16:49:35.668Z,8.77
2019-03-24T16:52:06.950Z,7.90
2019-03-24T16:54:38.130Z,9.00
2019-03-24T16:57:08.902Z,9.77
2019-03-24T16:59:40.439Z,7.97
2019-03-24T17:02:11.536Z,9.50
2019-03-24T17:04:42.428Z,9.67
2019-03-24T17:07:13.697Z,9.80
2019-03-24T17:09:44.699Z,7.00
2019-03-24T17:12:15.477Z,8.00
2019-03-24T17:14:46.422Z,13.57
2019-03-24T17:17:17.387Z,11.33
2019-03-24T17:19:48.511Z,10.90
2019-03-24T17:22:19.540Z,9.97
2019-03-24T17:24:51.137Z,6.70
2019-03-24T17:27:22.090Z,13.50
2019-03-24T17:29:52.976Z,9.47
2019-03-24T17:32:23.892Z,12.97
2019-03-24T17:34:54.871Z,11.80
2019-03-24T17:37:25.980Z,10.33
2019-03-24T17:39:56.748Z,9.93
2019-03-24T17:42:27.749Z,11.30
2019-03-24T17:44:58.526Z,14.03
2019-03-24T17:47:29.384Z,12.87
2019-03-24T17:50:00.408Z,13.53
2019-03-24T17:52:31.252Z,10.37
2019-03-24T17:55:02.802Z,11.27
2019-03-24T17:57:33.886Z,11.40
2019-03-24T18:00:09.884Z,15.63
2019-03-24T18:02:40.681Z,11.70
2019-03-24T18:05:12.335Z,8.87
2019-03-24T18:07:44.196Z,14.20
2019-03-24T18:10:15.376Z,13.30
2019-03-24T18:12:47.013Z,9.97
2019-03-24T18:15:18.079Z,9.63
2019-03-24T18:17:48.907Z,10.67
2019-03-24T18:20:31.098Z,10.47
2019-03-24T18:23:02.249Z,13.73
2019-03-24T18:25:33.304Z,12.97
2019-03-24T18:28:04.279Z,12.73
2019-03-24T18:30:35.620Z,15.10
2019-03-24T18:33:06.751Z,18.47
2019-03-24T18:35:38.092Z,14.83
2019-03-24T18:38:09.037Z,13.30
2019-03-24T18:40:40.915Z,10.07
2019-03-24T18:43:14.957Z,11.20
2019-03-24T18:45:45.795Z,10.20
2019-03-24T18:48:16.613Z,10.50
2019-03-24T18:50:47.462Z,11.33
2019-03-24T18:53:19.288Z,11.40
2019-03-24T18:55:50.301Z,12.33
2019-03-24T18:58:21.055Z,11.53
2019-03-24T19:00:51.901Z,13.67
2019-03-24T19:03:22.777Z,13.07
2019-03-24T19:05:53.686Z,11.77
2019-03-24T19:08:24.450Z,10.53
2019-03-24T19:10:55.217Z,12.13
2019-03-24T19:13:27.995Z,9.80
2019-03-24T19:15:59.408Z,8.67
2019-03-24T19:18:30.276Z,13.23
2019-03-24T19:21:01.016Z,13.33
2019-03-24T19:23:32.449Z,7.50
2019-03-24T19:26:03.153Z,10.83
2019-03-24T19:28:35.694Z,11.17
2019-03-24T19:31:06.624Z,9.90
2019-03-24T19:33:37.636Z,10.57
2019-03-24T19:36:09.223Z,12.47
2019-03-24T19:38:41.670Z,16.63
2019-03-24T19:41:13.962Z,11.70
2019-03-24T19:43:46.560Z,13.00
2019-03-24T19:46:17.619Z,17.73
2019-03-24T19:48:49.074Z,18.10
2019-03-24T19:51:20.554Z,21.03
2019-03-24T19:53:51.401Z,20.43
2019-03-24T19:56:22.359Z,22.57
2019-03-24T19:58:53.483Z,18.30
2019-03-24T20:01:24.312Z,19.47
2019-03-24T20:03:55.323Z,17.30
2019-03-24T20:06:26.143Z,18.53
2019-03-24T20:08:57.387Z,18.40
2019-03-24T20:11:29.875Z,15.00
2019-03-24T20:14:00.721Z,11.57
2019-03-24T20:16:31.646Z,14.60
2019-03-24T20:19:02.841Z,15.33
2019-03-24T20:21:34.462Z,13.77
2019-03-24T20:24:05.415Z,14.57
2019-03-24T20:26:36.552Z,11.53
2019-03-24T20:29:07.452Z,12.67
2019-03-24T20:31:39.301Z,17.57
2019-03-24T20:34:10.195Z,14.37
2019-03-24T20:36:41.280Z,15.47
2019-03-24T20:39:12.791Z,14.10
2019-03-24T20:41:43.588Z,19.37
2019-03-24T20:44:14.464Z,16.63
2019-03-24T20:46:45.824Z,12.00
2019-03-24T20:49:16.565Z,12.80
2019-03-24T20:51:47.372Z,9.37
2019-03-24T20:54:18.192Z,13.97
2019-03-24T20:56:49.295Z,9.33
2019-03-24T20:59:20.022Z,16.97
2019-03-24T21:01:50.825Z,20.83
2019-03-24T21:04:21.828Z,19.53
2019-03-24T21:06:52.615Z,12.87
2019-03-24T21:09:23.444Z,13.80
2019-03-24T21:11:54.351Z,13.80
2019-03-24T21:14:25.415Z,12.20
2019-03-24T21:16:57.510Z,10.37
2019-03-24T21:19:28.210Z,13.93
2019-03-24T21:21:58.972Z,13.73
2019-03-24T21:24:30.256Z,14.97
2019-03-24T21:27:01.036Z,11.63
2019-03-24T21:29:32.027Z,12.43
2019-03-24T21:32:03.856Z,13.13
2019-03-24T21:34:35.009Z,11.83
2019-03-24T21:37:06.336Z,11.43
2019-03-24T21:39:37.410Z,11.57
2019-03-24T21:42:08.207Z,13.87
2019-03-24T21:44:39.488Z,13.17
2019-03-24T21:47:10.405Z,12.77
2019-03-24T21:49:41.082Z,12.53
2019-03-24T21:52:12.457Z,13.70
2019-03-24T21:54:43.317Z,17.00
2019-03-24T21:57:14.049Z,16.37
2019-03-24T21:59:44.925Z,9.47
2019-03-24T22:02:15.792Z,11.93
2019-03-24T22:04:46.866Z,14.57
2019-03-24T22:07:17.540Z,13.03
2019-03-24T22:09:48.340Z,14.33
2019-03-24T22:12:19.101Z,10.63
2019-03-24T22:14:50.446Z,13.80
2019-03-24T22:17:21.181Z,11.17
2019-03-24T22:19:51.993Z,11.93
2019-03-24T22:22:22.683Z,15.23
2019-03-24T22:24:53.895Z,15.90
2019-03-24T22:27:25.037Z,14.53
2019-03-24T22:29:55.813Z,15.33
2019-03-24T22:32:26.614Z,12.90
2019-03-24T22:34:57.782Z,13.67
2019-03-24T22:37:28.492Z,19.00
2019-03-24T22:39:59.466Z,11.43
2019-03-24T22:42:30.646Z,14.07
2019-03-24T22:45:01.426Z,15.57
2019-03-24T22:47:32.201Z,12.27
2019-03-24T22:50:03.142Z,10.03
2019-03-24T22:52:34.262Z,11.10
2019-03-24T22:55:05.917Z,15.10
2019-03-24T22:57:36.694Z,11.63
2019-03-24T23:00:15.136Z,10.60
2019-03-24T23:02:46.051Z,15.17
2019-03-24T23:05:16.824Z,14.80
2019-03-24T23:07:47.741Z,14.53
2019-03-24T23:10:19.382Z,13.50
2019-03-24T23:12:50.396Z,14.30
2019-03-24T23:15:21.113Z,13.93
2019-03-24T23:17:51.818Z,11.73
2019-03-24T23:20:22.708Z,13.70
2019-03-24T23:22:53.414Z,15.87
2019-03-24T23:25:24.127Z,12.50
2019-03-24T23:27:54.837Z,14.60
2019-03-24T23:30:25.532Z,12.97
2019-03-24T23:32:56.206Z,12.63
2019-03-24T23:35:26.932Z,9.00
2019-03-24T23:37:57.678Z,15.07
2019-03-24T23:40:28.471Z,13.90
2019-03-24T23:42:59.330Z,13.73
2019-03-24T23:45:30.546Z,11.17
2019-03-24T23:48:01.395Z,10.67
2019-03-24T23:50:32.078Z,11.67
2019-03-24T23:53:02.764Z,12.33
2019-03-24T23:55:34.425Z,9.77
2019-03-24T23:58:06.108Z,13.83
